Norwalk, Wisconsin
Current Conditions -  °F | °C
As of 3:55 AM on Sunday 23 Nov 2014 (Local Time) from KCMY Reporting Station
Overcast Overcast  
Wind Chill: 51°   Ceiling: 1100
Heat Index: 51°   Visibility: 10mi
Dew Point: 49°   Wind: 12mph
Humidity: 92%   Direction: 180°S
Pressure: 29.58"   Gusts: 17mph
Location:  43.83°N, 90.62°W
Report Text: KCMY 230955Z AUTO 18010G15KT 10SM OVC011 11/09 A2958 RMK AO2 T01050093
Loading
Personal Weather Stations






























Interactive Weather Map New forecast layout! Learn more

10-Day Weather Forecast

Advertisements
Track Severe Weather on mobile